Current Weather

Banjul Intl

Banjul Intl, The Gambia (GBYD)

Report from: Tuesday, June 6, 2023 7:00 PM GMT
Current time: Tuesday, June 6, 2023 7:49 PM GMT

Nearby weather
Weather history
Weather forecast

Temperature28.0°C (82.4°F)
Heat index30.4°C (86.6°F)
Dew point21.0°C (69.8°F)
Winds 7 kts (3.6 m/s, 8.1 mph) West-Northwest (290°)
Clouds Sky clear
Altimeter29.85 in.Hg (1011 mB)
Relative humidity66 %
Density altitude1,907 ft. (581 m)
Remarks Ceiling and visibility OK
Flight conditions Visual Meteorological Conditions
Raw dataGBYD 061900Z 29007KT CAVOK 28/21 Q1011
An error has occurred. This application may no longer respond until reloaded. Reload 🗙